sensor_id;sensor_type;location;lat;lon;timestamp;P1;durP1;ratioP1;P2;durP2;ratioP2
26582;SDS011;14230;45.382;10.998;2023-02-28T00:01:28;12.43;;;7.10;;
26582;SDS011;14230;45.382;10.998;2023-02-28T00:03:57;11.50;;;6.85;;
26582;SDS011;14230;45.382;10.998;2023-02-28T00:06:25;13.32;;;7.72;;
26582;SDS011;14230;45.382;10.998;2023-02-28T00:08:53;13.45;;;7.15;;
26582;SDS011;14230;45.382;10.998;2023-02-28T00:11:22;11.32;;;6.80;;
26582;SDS011;14230;45.382;10.998;2023-02-28T00:13:51;14.50;;;8.25;;
26582;SDS011;14230;45.382;10.998;2023-02-28T00:16:20;11.27;;;7.80;;
26582;SDS011;14230;45.382;10.998;2023-02-28T00:18:49;12.30;;;6.85;;
26582;SDS011;14230;45.382;10.998;2023-02-28T00:21:19;9.55;;;6.82;;
26582;SDS011;14230;45.382;10.998;2023-02-28T00:23:48;13.48;;;6.93;;
26582;SDS011;14230;45.382;10.998;2023-02-28T00:26:15;13.38;;;7.68;;
26582;SDS011;14230;45.382;10.998;2023-02-28T00:28:46;15.95;;;7.32;;
26582;SDS011;14230;45.382;10.998;2023-02-28T00:31:15;11.07;;;7.88;;
26582;SDS011;14230;45.382;10.998;2023-02-28T00:33:42;10.93;;;7.55;;
26582;SDS011;14230;45.382;10.998;2023-02-28T00:36:11;12.20;;;7.25;;
26582;SDS011;14230;45.382;10.998;2023-02-28T00:38:39;11.23;;;7.40;;
26582;SDS011;14230;45.382;10.998;2023-02-28T00:41:07;11.07;;;6.82;;
26582;SDS011;14230;45.382;10.998;2023-02-28T00:43:36;11.05;;;6.82;;
26582;SDS011;14230;45.382;10.998;2023-02-28T00:46:05;8.77;;;6.28;;
26582;SDS011;14230;45.382;10.998;2023-02-28T00:48:33;12.43;;;7.97;;
26582;SDS011;14230;45.382;10.998;2023-02-28T00:51:02;9.50;;;5.95;;
26582;SDS011;14230;45.382;10.998;2023-02-28T00:53:30;10.38;;;6.65;;
26582;SDS011;14230;45.382;10.998;2023-02-28T00:55:59;9.02;;;6.15;;
26582;SDS011;14230;45.382;10.998;2023-02-28T00:58:27;10.15;;;6.53;;
26582;SDS011;14230;45.382;10.998;2023-02-28T01:00:55;11.27;;;6.45;;
26582;SDS011;14230;45.382;10.998;2023-02-28T01:03:22;10.00;;;6.60;;
26582;SDS011;14230;45.382;10.998;2023-02-28T01:05:50;10.38;;;6.55;;
26582;SDS011;14230;45.382;10.998;2023-02-28T01:08:17;9.05;;;6.30;;
26582;SDS011;14230;45.382;10.998;2023-02-28T01:10:45;12.32;;;6.63;;
26582;SDS011;14230;45.382;10.998;2023-02-28T01:13:13;11.13;;;6.47;;
26582;SDS011;14230;45.382;10.998;2023-02-28T01:15:43;13.63;;;7.72;;
26582;SDS011;14230;45.382;10.998;2023-02-28T01:18:15;8.88;;;6.57;;
26582;SDS011;14230;45.382;10.998;2023-02-28T01:20:42;13.15;;;6.85;;
26582;SDS011;14230;45.382;10.998;2023-02-28T01:23:10;13.88;;;6.88;;
26582;SDS011;14230;45.382;10.998;2023-02-28T01:25:37;11.13;;;6.85;;
26582;SDS011;14230;45.382;10.998;2023-02-28T01:28:05;11.77;;;6.70;;
26582;SDS011;14230;45.382;10.998;2023-02-28T01:30:33;10.05;;;7.70;;
26582;SDS011;14230;45.382;10.998;2023-02-28T01:33:01;9.43;;;6.47;;
26582;SDS011;14230;45.382;10.998;2023-02-28T01:35:28;11.07;;;6.55;;
26582;SDS011;14230;45.382;10.998;2023-02-28T01:38:00;11.52;;;6.93;;
26582;SDS011;14230;45.382;10.998;2023-02-28T01:40:47;9.82;;;5.85;;
26582;SDS011;14230;45.382;10.998;2023-02-28T01:43:25;11.05;;;6.78;;
26582;SDS011;14230;45.382;10.998;2023-02-28T01:45:54;10.82;;;6.80;;
26582;SDS011;14230;45.382;10.998;2023-02-28T01:48:29;9.65;;;7.13;;
26582;SDS011;14230;45.382;10.998;2023-02-28T01:51:00;13.85;;;6.95;;
26582;SDS011;14230;45.382;10.998;2023-02-28T01:53:33;10.52;;;6.38;;
26582;SDS011;14230;45.382;10.998;2023-02-28T01:56:06;9.55;;;6.03;;
26582;SDS011;14230;45.382;10.998;2023-02-28T01:58:36;9.50;;;6.05;;
26582;SDS011;14230;45.382;10.998;2023-02-28T02:01:03;8.90;;;6.38;;
26582;SDS011;14230;45.382;10.998;2023-02-28T02:03:32;13.23;;;6.35;;
26582;SDS011;14230;45.382;10.998;2023-02-28T02:06:02;9.90;;;6.55;;
26582;SDS011;14230;45.382;10.998;2023-02-28T02:08:30;11.30;;;6.30;;
26582;SDS011;14230;45.382;10.998;2023-02-28T02:10:59;8.93;;;5.70;;
26582;SDS011;14230;45.382;10.998;2023-02-28T02:16:33;12.90;;;6.60;;
26582;SDS011;14230;45.382;10.998;2023-02-28T02:27:23;9.18;;;6.57;;
26582;SDS011;14230;45.382;10.998;2023-02-28T02:35:56;9.77;;;6.57;;
26582;SDS011;14230;45.382;10.998;2023-02-28T02:41:29;11.27;;;6.22;;
26582;SDS011;14230;45.382;10.998;2023-02-28T02:44:07;9.13;;;6.35;;
26582;SDS011;14230;45.382;10.998;2023-02-28T02:46:47;11.25;;;6.78;;
26582;SDS011;14230;45.382;10.998;2023-02-28T02:49:19;8.73;;;6.10;;
26582;SDS011;14230;45.382;10.998;2023-02-28T02:52:05;11.00;;;6.75;;
26582;SDS011;14230;45.382;10.998;2023-02-28T02:54:37;8.82;;;5.72;;
26582;SDS011;14230;45.382;10.998;2023-02-28T02:57:09;12.85;;;6.95;;
26582;SDS011;14230;45.382;10.998;2023-02-28T02:59:44;8.98;;;6.85;;
26582;SDS011;14230;45.382;10.998;2023-02-28T03:02:14;10.52;;;6.20;;
26582;SDS011;14230;45.382;10.998;2023-02-28T03:04:49;10.25;;;6.68;;
26582;SDS011;14230;45.382;10.998;2023-02-28T03:07:23;11.13;;;7.43;;
26582;SDS011;14230;45.382;10.998;2023-02-28T03:09:54;10.50;;;6.97;;
26582;SDS011;14230;45.382;10.998;2023-02-28T03:12:23;9.73;;;6.32;;
26582;SDS011;14230;45.382;10.998;2023-02-28T03:18:15;8.98;;;6.40;;
26582;SDS011;14230;45.382;10.998;2023-02-28T03:21:05;11.32;;;7.45;;
26582;SDS011;14230;45.382;10.998;2023-02-28T03:24:18;8.77;;;6.60;;
26582;SDS011;14230;45.382;10.998;2023-02-28T03:26:55;10.93;;;6.85;;
26582;SDS011;14230;45.382;10.998;2023-02-28T03:29:33;11.23;;;7.15;;
26582;SDS011;14230;45.382;10.998;2023-02-28T03:32:33;11.23;;;6.60;;
26582;SDS011;14230;45.382;10.998;2023-02-28T03:38:17;11.18;;;7.30;;
26582;SDS011;14230;45.382;10.998;2023-02-28T03:40:50;11.10;;;6.97;;
26582;SDS011;14230;45.382;10.998;2023-02-28T03:43:29;9.65;;;6.97;;
26582;SDS011;14230;45.382;10.998;2023-02-28T03:46:03;10.55;;;6.68;;
26582;SDS011;14230;45.382;10.998;2023-02-28T03:48:49;13.00;;;7.45;;
26582;SDS011;14230;45.382;10.998;2023-02-28T03:51:22;10.93;;;6.80;;
26582;SDS011;14230;45.382;10.998;2023-02-28T03:53:53;11.88;;;6.93;;
26582;SDS011;14230;45.382;10.998;2023-02-28T03:56:32;10.48;;;6.85;;
26582;SDS011;14230;45.382;10.998;2023-02-28T03:59:06;10.38;;;7.00;;
26582;SDS011;14230;45.382;10.998;2023-02-28T04:01:55;8.35;;;6.15;;
26582;SDS011;14230;45.382;10.998;2023-02-28T04:04:25;10.75;;;6.28;;
26582;SDS011;14230;45.382;10.998;2023-02-28T04:06:53;9.95;;;7.35;;
26582;SDS011;14230;45.382;10.998;2023-02-28T04:09:28;18.70;;;7.75;;
26582;SDS011;14230;45.382;10.998;2023-02-28T04:11:56;10.55;;;6.80;;
26582;SDS011;14230;45.382;10.998;2023-02-28T04:14:23;9.50;;;6.47;;
26582;SDS011;14230;45.382;10.998;2023-02-28T04:16:51;11.57;;;7.25;;
26582;SDS011;14230;45.382;10.998;2023-02-28T04:19:19;10.18;;;7.20;;
26582;SDS011;14230;45.382;10.998;2023-02-28T04:21:47;11.60;;;7.00;;
26582;SDS011;14230;45.382;10.998;2023-02-28T04:24:18;12.48;;;7.18;;
26582;SDS011;14230;45.382;10.998;2023-02-28T04:26:52;10.73;;;6.57;;
26582;SDS011;14230;45.382;10.998;2023-02-28T04:29:25;9.05;;;6.45;;
26582;SDS011;14230;45.382;10.998;2023-02-28T04:31:57;11.50;;;8.02;;
26582;SDS011;14230;45.382;10.998;2023-02-28T04:34:26;12.70;;;6.95;;
26582;SDS011;14230;45.382;10.998;2023-02-28T04:36:55;10.43;;;6.65;;
26582;SDS011;14230;45.382;10.998;2023-02-28T04:39:38;11.02;;;6.75;;
26582;SDS011;14230;45.382;10.998;2023-02-28T04:42:06;11.65;;;7.45;;
26582;SDS011;14230;45.382;10.998;2023-02-28T04:44:33;13.02;;;7.10;;
26582;SDS011;14230;45.382;10.998;2023-02-28T04:47:01;10.10;;;6.82;;
26582;SDS011;14230;45.382;10.998;2023-02-28T04:49:28;11.15;;;7.38;;
26582;SDS011;14230;45.382;10.998;2023-02-28T04:51:56;8.85;;;6.35;;
26582;SDS011;14230;45.382;10.998;2023-02-28T04:54:23;11.40;;;6.22;;
26582;SDS011;14230;45.382;10.998;2023-02-28T04:56:51;10.80;;;6.82;;
26582;SDS011;14230;45.382;10.998;2023-02-28T04:59:18;11.65;;;7.47;;
26582;SDS011;14230;45.382;10.998;2023-02-28T05:01:46;13.23;;;6.28;;
26582;SDS011;14230;45.382;10.998;2023-02-28T05:04:15;9.63;;;6.28;;
26582;SDS011;14230;45.382;10.998;2023-02-28T05:06:43;12.75;;;6.72;;
26582;SDS011;14230;45.382;10.998;2023-02-28T05:09:12;9.70;;;6.60;;
26582;SDS011;14230;45.382;10.998;2023-02-28T05:11:39;10.80;;;6.47;;
26582;SDS011;14230;45.382;10.998;2023-02-28T05:14:11;11.07;;;7.20;;
26582;SDS011;14230;45.382;10.998;2023-02-28T05:16:41;13.13;;;8.20;;
26582;SDS011;14230;45.382;10.998;2023-02-28T05:19:09;34.05;;;17.55;;
26582;SDS011;14230;45.382;10.998;2023-02-28T05:21:52;39.15;;;19.63;;
26582;SDS011;14230;45.382;10.998;2023-02-28T05:24:21;33.40;;;18.00;;
26582;SDS011;14230;45.382;10.998;2023-02-28T05:26:52;37.00;;;18.05;;
26582;SDS011;14230;45.382;10.998;2023-02-28T05:29:21;36.55;;;17.95;;
26582;SDS011;14230;45.382;10.998;2023-02-28T05:31:48;37.80;;;18.52;;
26582;SDS011;14230;45.382;10.998;2023-02-28T05:34:17;39.90;;;19.73;;
26582;SDS011;14230;45.382;10.998;2023-02-28T05:36:44;38.30;;;18.85;;
26582;SDS011;14230;45.382;10.998;2023-02-28T05:39:12;37.65;;;17.58;;
26582;SDS011;14230;45.382;10.998;2023-02-28T05:41:40;29.83;;;16.52;;
26582;SDS011;14230;45.382;10.998;2023-02-28T05:44:09;40.60;;;17.25;;
26582;SDS011;14230;45.382;10.998;2023-02-28T05:46:37;28.33;;;15.27;;
26582;SDS011;14230;45.382;10.998;2023-02-28T05:49:05;27.48;;;12.60;;
26582;SDS011;14230;45.382;10.998;2023-02-28T05:51:33;22.83;;;12.43;;
26582;SDS011;14230;45.382;10.998;2023-02-28T05:54:03;17.70;;;9.20;;
26582;SDS011;14230;45.382;10.998;2023-02-28T05:56:30;16.90;;;8.93;;
26582;SDS011;14230;45.382;10.998;2023-02-28T05:58:58;15.43;;;8.80;;
26582;SDS011;14230;45.382;10.998;2023-02-28T06:01:37;11.80;;;7.38;;
26582;SDS011;14230;45.382;10.998;2023-02-28T06:04:16;18.35;;;8.68;;
26582;SDS011;14230;45.382;10.998;2023-02-28T06:09:25;18.67;;;10.05;;
26582;SDS011;14230;45.382;10.998;2023-02-28T06:11:52;21.60;;;12.13;;
26582;SDS011;14230;45.382;10.998;2023-02-28T06:14:20;21.27;;;11.25;;
26582;SDS011;14230;45.382;10.998;2023-02-28T06:16:48;22.95;;;11.45;;
26582;SDS011;14230;45.382;10.998;2023-02-28T06:19:16;16.52;;;10.32;;
26582;SDS011;14230;45.382;10.998;2023-02-28T06:21:43;21.77;;;10.73;;
26582;SDS011;14230;45.382;10.998;2023-02-28T06:24:11;16.92;;;9.27;;
26582;SDS011;14230;45.382;10.998;2023-02-28T06:26:38;16.05;;;9.07;;
26582;SDS011;14230;45.382;10.998;2023-02-28T06:29:06;16.50;;;7.60;;
26582;SDS011;14230;45.382;10.998;2023-02-28T06:31:34;12.82;;;8.13;;
26582;SDS011;14230;45.382;10.998;2023-02-28T06:34:01;11.75;;;7.30;;
26582;SDS011;14230;45.382;10.998;2023-02-28T06:36:29;17.13;;;7.93;;
26582;SDS011;14230;45.382;10.998;2023-02-28T06:38:57;11.73;;;7.07;;
26582;SDS011;14230;45.382;10.998;2023-02-28T06:41:25;14.38;;;7.78;;
26582;SDS011;14230;45.382;10.998;2023-02-28T06:43:54;16.33;;;8.77;;
26582;SDS011;14230;45.382;10.998;2023-02-28T06:46:22;15.45;;;8.68;;
26582;SDS011;14230;45.382;10.998;2023-02-28T06:48:49;15.35;;;9.00;;
26582;SDS011;14230;45.382;10.998;2023-02-28T06:51:18;12.23;;;7.70;;
26582;SDS011;14230;45.382;10.998;2023-02-28T06:53:48;14.10;;;7.93;;
26582;SDS011;14230;45.382;10.998;2023-02-28T06:56:17;11.55;;;6.80;;
26582;SDS011;14230;45.382;10.998;2023-02-28T06:58:50;11.10;;;6.85;;
26582;SDS011;14230;45.382;10.998;2023-02-28T07:01:19;11.77;;;7.47;;
26582;SDS011;14230;45.382;10.998;2023-02-28T07:03:49;11.52;;;7.70;;
26582;SDS011;14230;45.382;10.998;2023-02-28T07:06:22;12.77;;;7.53;;
26582;SDS011;14230;45.382;10.998;2023-02-28T07:08:51;13.87;;;7.73;;
26582;SDS011;14230;45.382;10.998;2023-02-28T07:11:20;11.43;;;6.88;;
26582;SDS011;14230;45.382;10.998;2023-02-28T07:13:49;17.13;;;9.00;;
26582;SDS011;14230;45.382;10.998;2023-02-28T07:16:17;18.52;;;7.47;;
26582;SDS011;14230;45.382;10.998;2023-02-28T07:18:45;10.88;;;7.32;;
26582;SDS011;14230;45.382;10.998;2023-02-28T07:21:13;11.63;;;6.65;;
26582;SDS011;14230;45.382;10.998;2023-02-28T07:23:41;12.07;;;7.28;;
26582;SDS011;14230;45.382;10.998;2023-02-28T07:26:10;11.68;;;6.88;;
26582;SDS011;14230;45.382;10.998;2023-02-28T07:28:41;13.80;;;7.13;;
26582;SDS011;14230;45.382;10.998;2023-02-28T07:31:09;13.93;;;7.38;;
26582;SDS011;14230;45.382;10.998;2023-02-28T07:33:38;14.18;;;8.48;;
26582;SDS011;14230;45.382;10.998;2023-02-28T07:36:13;13.35;;;7.53;;
26582;SDS011;14230;45.382;10.998;2023-02-28T07:38:43;14.65;;;7.68;;
26582;SDS011;14230;45.382;10.998;2023-02-28T07:41:18;12.35;;;7.38;;
26582;SDS011;14230;45.382;10.998;2023-02-28T07:43:47;12.77;;;6.95;;
26582;SDS011;14230;45.382;10.998;2023-02-28T07:46:15;10.35;;;6.57;;
26582;SDS011;14230;45.382;10.998;2023-02-28T07:48:44;10.73;;;6.53;;
26582;SDS011;14230;45.382;10.998;2023-02-28T07:51:12;16.13;;;7.78;;
26582;SDS011;14230;45.382;10.998;2023-02-28T07:53:40;12.00;;;6.65;;
26582;SDS011;14230;45.382;10.998;2023-02-28T07:56:07;10.13;;;6.70;;
26582;SDS011;14230;45.382;10.998;2023-02-28T07:58:35;14.40;;;7.35;;
26582;SDS011;14230;45.382;10.998;2023-02-28T08:01:06;12.57;;;7.30;;
26582;SDS011;14230;45.382;10.998;2023-02-28T08:03:35;14.82;;;8.18;;
26582;SDS011;14230;45.382;10.998;2023-02-28T08:06:04;17.13;;;7.93;;
26582;SDS011;14230;45.382;10.998;2023-02-28T08:08:33;15.13;;;7.90;;
26582;SDS011;14230;45.382;10.998;2023-02-28T08:11:01;10.48;;;7.03;;
26582;SDS011;14230;45.382;10.998;2023-02-28T08:13:30;11.93;;;6.93;;
26582;SDS011;14230;45.382;10.998;2023-02-28T08:15:57;11.85;;;6.75;;
26582;SDS011;14230;45.382;10.998;2023-02-28T08:18:25;12.90;;;6.95;;
26582;SDS011;14230;45.382;10.998;2023-02-28T08:20:52;11.80;;;7.35;;
26582;SDS011;14230;45.382;10.998;2023-02-28T08:23:19;10.98;;;6.28;;
26582;SDS011;14230;45.382;10.998;2023-02-28T08:25:53;10.63;;;6.82;;
26582;SDS011;14230;45.382;10.998;2023-02-28T08:28:22;10.57;;;6.32;;
26582;SDS011;14230;45.382;10.998;2023-02-28T08:30:53;14.98;;;7.38;;
26582;SDS011;14230;45.382;10.998;2023-02-28T08:33:21;13.18;;;6.53;;
26582;SDS011;14230;45.382;10.998;2023-02-28T08:35:52;11.23;;;7.90;;
26582;SDS011;14230;45.382;10.998;2023-02-28T08:38:20;13.65;;;7.25;;
26582;SDS011;14230;45.382;10.998;2023-02-28T08:40:48;11.38;;;6.53;;
26582;SDS011;14230;45.382;10.998;2023-02-28T08:43:16;11.75;;;6.63;;
26582;SDS011;14230;45.382;10.998;2023-02-28T08:45:44;12.25;;;6.38;;
26582;SDS011;14230;45.382;10.998;2023-02-28T08:48:11;11.15;;;6.57;;
26582;SDS011;14230;45.382;10.998;2023-02-28T08:50:40;12.18;;;6.78;;
26582;SDS011;14230;45.382;10.998;2023-02-28T08:53:07;11.70;;;7.13;;
26582;SDS011;14230;45.382;10.998;2023-02-28T08:55:35;11.02;;;7.00;;
26582;SDS011;14230;45.382;10.998;2023-02-28T08:58:02;11.63;;;6.55;;
26582;SDS011;14230;45.382;10.998;2023-02-28T09:00:30;11.00;;;6.80;;
26582;SDS011;14230;45.382;10.998;2023-02-28T09:02:57;12.68;;;5.75;;
26582;SDS011;14230;45.382;10.998;2023-02-28T09:05:24;11.25;;;6.78;;
26582;SDS011;14230;45.382;10.998;2023-02-28T09:07:52;13.23;;;7.07;;
26582;SDS011;14230;45.382;10.998;2023-02-28T09:10:19;10.43;;;7.07;;
26582;SDS011;14230;45.382;10.998;2023-02-28T09:12:46;13.07;;;7.55;;
26582;SDS011;14230;45.382;10.998;2023-02-28T09:15:14;28.73;;;15.93;;
26582;SDS011;14230;45.382;10.998;2023-02-28T09:17:41;13.73;;;7.47;;
26582;SDS011;14230;45.382;10.998;2023-02-28T09:20:12;9.77;;;6.63;;
26582;SDS011;14230;45.382;10.998;2023-02-28T09:22:39;11.75;;;6.57;;
26582;SDS011;14230;45.382;10.998;2023-02-28T09:25:07;12.00;;;6.65;;
26582;SDS011;14230;45.382;10.998;2023-02-28T09:27:34;12.65;;;6.82;;
26582;SDS011;14230;45.382;10.998;2023-02-28T09:30:02;10.25;;;6.05;;
26582;SDS011;14230;45.382;10.998;2023-02-28T09:32:29;12.02;;;5.43;;
26582;SDS011;14230;45.382;10.998;2023-02-28T09:34:57;9.60;;;6.13;;
26582;SDS011;14230;45.382;10.998;2023-02-28T09:37:24;9.27;;;5.85;;
26582;SDS011;14230;45.382;10.998;2023-02-28T09:39:56;10.48;;;7.72;;
26582;SDS011;14230;45.382;10.998;2023-02-28T09:42:25;9.80;;;5.75;;
26582;SDS011;14230;45.382;10.998;2023-02-28T09:45:00;9.07;;;5.43;;
26582;SDS011;14230;45.382;10.998;2023-02-28T09:47:38;8.50;;;5.32;;
26582;SDS011;14230;45.382;10.998;2023-02-28T09:50:17;15.32;;;5.72;;
26582;SDS011;14230;45.382;10.998;2023-02-28T09:52:48;8.57;;;6.07;;
26582;SDS011;14230;45.382;10.998;2023-02-28T09:55:26;8.60;;;5.60;;
26582;SDS011;14230;45.382;10.998;2023-02-28T09:58:15;11.27;;;6.60;;
26582;SDS011;14230;45.382;10.998;2023-02-28T10:01:03;8.43;;;6.20;;
26582;SDS011;14230;45.382;10.998;2023-02-28T10:06:33;12.88;;;6.07;;
26582;SDS011;14230;45.382;10.998;2023-02-28T10:09:21;9.13;;;6.45;;
26582;SDS011;14230;45.382;10.998;2023-02-28T10:11:52;8.93;;;6.07;;
26582;SDS011;14230;45.382;10.998;2023-02-28T10:19:33;12.02;;;5.95;;
26582;SDS011;14230;45.382;10.998;2023-02-28T10:22:11;11.57;;;6.60;;
26582;SDS011;14230;45.382;10.998;2023-02-28T10:24:45;10.93;;;6.40;;
26582;SDS011;14230;45.382;10.998;2023-02-28T10:27:21;10.02;;;6.68;;
26582;SDS011;14230;45.382;10.998;2023-02-28T10:29:54;10.15;;;6.03;;
26582;SDS011;14230;45.382;10.998;2023-02-28T10:32:24;10.32;;;6.05;;
26582;SDS011;14230;45.382;10.998;2023-02-28T10:34:58;11.60;;;6.35;;
26582;SDS011;14230;45.382;10.998;2023-02-28T10:37:48;11.57;;;7.22;;
26582;SDS011;14230;45.382;10.998;2023-02-28T10:40:34;12.25;;;7.07;;
26582;SDS011;14230;45.382;10.998;2023-02-28T10:43:07;14.13;;;7.85;;
26582;SDS011;14230;45.382;10.998;2023-02-28T10:56:00;9.93;;;6.82;;
26582;SDS011;14230;45.382;10.998;2023-02-28T10:58:48;11.05;;;6.40;;
26582;SDS011;14230;45.382;10.998;2023-02-28T11:01:35;12.00;;;6.30;;
26582;SDS011;14230;45.382;10.998;2023-02-28T11:04:18;13.50;;;6.43;;
26582;SDS011;14230;45.382;10.998;2023-02-28T11:07:14;10.27;;;5.75;;
26582;SDS011;14230;45.382;10.998;2023-02-28T11:09:50;12.05;;;6.30;;
26582;SDS011;14230;45.382;10.998;2023-02-28T11:15:03;9.73;;;6.68;;
26582;SDS011;14230;45.382;10.998;2023-02-28T11:17:45;14.60;;;6.35;;
26582;SDS011;14230;45.382;10.998;2023-02-28T11:20:42;11.00;;;6.78;;
26582;SDS011;14230;45.382;10.998;2023-02-28T11:23:16;12.73;;;7.57;;
26582;SDS011;14230;45.382;10.998;2023-02-28T11:25:47;11.40;;;7.43;;
26582;SDS011;14230;45.382;10.998;2023-02-28T11:28:28;12.90;;;6.75;;
26582;SDS011;14230;45.382;10.998;2023-02-28T11:36:10;11.70;;;6.78;;
26582;SDS011;14230;45.382;10.998;2023-02-28T11:38:38;11.02;;;7.18;;
26582;SDS011;14230;45.382;10.998;2023-02-28T11:43:56;12.25;;;7.03;;
26582;SDS011;14230;45.382;10.998;2023-02-28T11:46:41;18.67;;;7.10;;
26582;SDS011;14230;45.382;10.998;2023-02-28T11:49:22;12.68;;;7.07;;
26582;SDS011;14230;45.382;10.998;2023-02-28T11:57:27;14.48;;;7.97;;
26582;SDS011;14230;45.382;10.998;2023-02-28T12:05:42;17.17;;;8.50;;
26582;SDS011;14230;45.382;10.998;2023-02-28T12:11:02;13.27;;;7.78;;
26582;SDS011;14230;45.382;10.998;2023-02-28T12:22:06;12.80;;;7.63;;
26582;SDS011;14230;45.382;10.998;2023-02-28T12:27:40;15.63;;;7.80;;
26582;SDS011;14230;45.382;10.998;2023-02-28T12:30:27;18.90;;;7.53;;
26582;SDS011;14230;45.382;10.998;2023-02-28T12:33:10;14.15;;;7.53;;
26582;SDS011;14230;45.382;10.998;2023-02-28T12:35:49;15.10;;;8.02;;
26582;SDS011;14230;45.382;10.998;2023-02-28T12:38:24;18.98;;;8.65;;
26582;SDS011;14230;45.382;10.998;2023-02-28T12:43:36;13.60;;;7.70;;
26582;SDS011;14230;45.382;10.998;2023-02-28T12:46:20;15.80;;;8.60;;
26582;SDS011;14230;45.382;10.998;2023-02-28T12:48:53;14.95;;;8.10;;
26582;SDS011;14230;45.382;10.998;2023-02-28T12:51:24;21.95;;;8.18;;
26582;SDS011;14230;45.382;10.998;2023-02-28T12:57:01;14.27;;;7.88;;
26582;SDS011;14230;45.382;10.998;2023-02-28T12:59:52;16.00;;;8.70;;
26582;SDS011;14230;45.382;10.998;2023-02-28T13:11:06;14.23;;;8.63;;
26582;SDS011;14230;45.382;10.998;2023-02-28T13:13:27;13.65;;;8.60;;
26582;SDS011;14230;45.382;10.998;2023-02-28T13:18:38;13.32;;;8.10;;
26582;SDS011;14230;45.382;10.998;2023-02-28T13:21:09;13.60;;;7.53;;
26582;SDS011;14230;45.382;10.998;2023-02-28T13:34:39;14.40;;;8.27;;
26582;SDS011;14230;45.382;10.998;2023-02-28T13:39:49;14.07;;;7.93;;
26582;SDS011;14230;45.382;10.998;2023-02-28T13:42:31;18.58;;;7.70;;
26582;SDS011;14230;45.382;10.998;2023-02-28T13:47:29;10.60;;;7.13;;
26582;SDS011;14230;45.382;10.998;2023-02-28T13:50:36;10.27;;;6.55;;
26582;SDS011;14230;45.382;10.998;2023-02-28T14:06:58;13.55;;;7.43;;
26582;SDS011;14230;45.382;10.998;2023-02-28T14:09:39;13.93;;;7.18;;
26582;SDS011;14230;45.382;10.998;2023-02-28T14:18:27;14.98;;;9.00;;
26582;SDS011;14230;45.382;10.998;2023-02-28T14:21:09;11.70;;;8.02;;
26582;SDS011;14230;45.382;10.998;2023-02-28T14:34:53;15.77;;;8.40;;
26582;SDS011;14230;45.382;10.998;2023-02-28T14:37:53;11.60;;;6.70;;
26582;SDS011;14230;45.382;10.998;2023-02-28T14:40:29;12.00;;;7.00;;
26582;SDS011;14230;45.382;10.998;2023-02-28T14:42:59;12.63;;;8.05;;
26582;SDS011;14230;45.382;10.998;2023-02-28T14:45:29;12.25;;;7.45;;
26582;SDS011;14230;45.382;10.998;2023-02-28T14:47:58;13.25;;;7.82;;
26582;SDS011;14230;45.382;10.998;2023-02-28T14:50:31;11.02;;;7.25;;
26582;SDS011;14230;45.382;10.998;2023-02-28T14:53:02;13.15;;;6.60;;
26582;SDS011;14230;45.382;10.998;2023-02-28T14:55:31;13.30;;;7.95;;
26582;SDS011;14230;45.382;10.998;2023-02-28T14:58:02;12.85;;;7.90;;
26582;SDS011;14230;45.382;10.998;2023-02-28T15:00:35;12.82;;;7.53;;
26582;SDS011;14230;45.382;10.998;2023-02-28T15:03:17;16.63;;;7.47;;
26582;SDS011;14230;45.382;10.998;2023-02-28T15:06:04;10.60;;;7.38;;
26582;SDS011;14230;45.382;10.998;2023-02-28T15:08:33;14.10;;;8.82;;
26582;SDS011;14230;45.382;10.998;2023-02-28T15:11:04;12.57;;;8.13;;
26582;SDS011;14230;45.382;10.998;2023-02-28T15:18:49;15.48;;;7.93;;
26582;SDS011;14230;45.382;10.998;2023-02-28T15:23:56;13.50;;;8.20;;
26582;SDS011;14230;45.382;10.998;2023-02-28T15:26:27;14.18;;;8.23;;
26582;SDS011;14230;45.382;10.998;2023-02-28T15:29:11;15.18;;;8.68;;
26582;SDS011;14230;45.382;10.998;2023-02-28T15:31:46;11.77;;;8.00;;
26582;SDS011;14230;45.382;10.998;2023-02-28T15:34:37;14.35;;;8.20;;
26582;SDS011;14230;45.382;10.998;2023-02-28T15:43:05;14.80;;;8.98;;
26582;SDS011;14230;45.382;10.998;2023-02-28T15:45:34;14.32;;;8.27;;
26582;SDS011;14230;45.382;10.998;2023-02-28T15:48:13;16.02;;;8.20;;
26582;SDS011;14230;45.382;10.998;2023-02-28T15:50:47;14.77;;;8.73;;
26582;SDS011;14230;45.382;10.998;2023-02-28T15:53:32;14.27;;;8.60;;
26582;SDS011;14230;45.382;10.998;2023-02-28T15:56:07;14.70;;;8.65;;
26582;SDS011;14230;45.382;10.998;2023-02-28T15:58:55;13.90;;;8.38;;
26582;SDS011;14230;45.382;10.998;2023-02-28T16:03:53;17.13;;;9.68;;
26582;SDS011;14230;45.382;10.998;2023-02-28T16:06:26;15.43;;;9.00;;
26582;SDS011;14230;45.382;10.998;2023-02-28T16:08:55;15.18;;;8.82;;
26582;SDS011;14230;45.382;10.998;2023-02-28T16:11:23;24.30;;;10.38;;
26582;SDS011;14230;45.382;10.998;2023-02-28T16:13:50;39.90;;;18.38;;
26582;SDS011;14230;45.382;10.998;2023-02-28T16:16:22;16.50;;;8.52;;
26582;SDS011;14230;45.382;10.998;2023-02-28T16:18:53;15.20;;;9.20;;
26582;SDS011;14230;45.382;10.998;2023-02-28T16:21:25;23.30;;;11.27;;
26582;SDS011;14230;45.382;10.998;2023-02-28T16:23:53;17.55;;;10.35;;
26582;SDS011;14230;45.382;10.998;2023-02-28T16:26:21;16.70;;;10.35;;
26582;SDS011;14230;45.382;10.998;2023-02-28T16:28:50;14.77;;;8.77;;
26582;SDS011;14230;45.382;10.998;2023-02-28T16:31:19;17.60;;;10.38;;
26582;SDS011;14230;45.382;10.998;2023-02-28T16:33:47;16.63;;;9.15;;
26582;SDS011;14230;45.382;10.998;2023-02-28T16:36:15;13.70;;;8.38;;
26582;SDS011;14230;45.382;10.998;2023-02-28T16:38:44;16.88;;;9.32;;
26582;SDS011;14230;45.382;10.998;2023-02-28T16:41:12;15.73;;;8.82;;
26582;SDS011;14230;45.382;10.998;2023-02-28T16:43:46;18.83;;;9.07;;
26582;SDS011;14230;45.382;10.998;2023-02-28T16:46:15;17.67;;;8.82;;
26582;SDS011;14230;45.382;10.998;2023-02-28T16:48:44;17.40;;;9.15;;
26582;SDS011;14230;45.382;10.998;2023-02-28T16:51:13;18.38;;;8.93;;
26582;SDS011;14230;45.382;10.998;2023-02-28T16:53:44;17.02;;;9.80;;
26582;SDS011;14230;45.382;10.998;2023-02-28T16:56:16;16.73;;;10.57;;
26582;SDS011;14230;45.382;10.998;2023-02-28T16:58:46;22.13;;;10.10;;
26582;SDS011;14230;45.382;10.998;2023-02-28T17:01:14;19.67;;;11.15;;
26582;SDS011;14230;45.382;10.998;2023-02-28T17:03:42;30.02;;;11.18;;
26582;SDS011;14230;45.382;10.998;2023-02-28T17:06:16;18.33;;;10.00;;
26582;SDS011;14230;45.382;10.998;2023-02-28T17:08:49;20.55;;;10.57;;
26582;SDS011;14230;45.382;10.998;2023-02-28T17:11:18;22.75;;;10.95;;
26582;SDS011;14230;45.382;10.998;2023-02-28T17:13:46;19.45;;;10.15;;
26582;SDS011;14230;45.382;10.998;2023-02-28T17:16:25;29.33;;;15.00;;
26582;SDS011;14230;45.382;10.998;2023-02-28T17:19:00;24.33;;;11.77;;
26582;SDS011;14230;45.382;10.998;2023-02-28T17:21:29;20.30;;;11.75;;
26582;SDS011;14230;45.382;10.998;2023-02-28T17:23:58;20.13;;;10.68;;
26582;SDS011;14230;45.382;10.998;2023-02-28T17:26:26;17.92;;;9.98;;
26582;SDS011;14230;45.382;10.998;2023-02-28T17:28:55;21.20;;;11.75;;
26582;SDS011;14230;45.382;10.998;2023-02-28T17:31:24;30.38;;;12.73;;
26582;SDS011;14230;45.382;10.998;2023-02-28T17:33:53;25.55;;;13.32;;